sensor_id;sensor_type;location;lat;lon;timestamp;P1;durP1;ratioP1;P2;durP2;ratioP2
36283;SDS011;56085;48.910;9.478;2023-11-19T00:02:06;4.07;;;1.85;;
36283;SDS011;56085;48.910;9.478;2023-11-19T00:04:33;2.50;;;1.48;;
36283;SDS011;56085;48.910;9.478;2023-11-19T00:07:01;2.63;;;1.40;;
36283;SDS011;56085;48.910;9.478;2023-11-19T00:09:28;3.63;;;1.50;;
36283;SDS011;56085;48.910;9.478;2023-11-19T00:11:54;2.65;;;1.58;;
36283;SDS011;56085;48.910;9.478;2023-11-19T00:14:19;2.78;;;1.58;;
36283;SDS011;56085;48.910;9.478;2023-11-19T00:16:44;2.70;;;1.50;;
36283;SDS011;56085;48.910;9.478;2023-11-19T00:19:10;3.08;;;1.40;;
36283;SDS011;56085;48.910;9.478;2023-11-19T00:21:35;3.65;;;1.60;;
36283;SDS011;56085;48.910;9.478;2023-11-19T00:24:01;4.07;;;1.30;;
36283;SDS011;56085;48.910;9.478;2023-11-19T00:26:27;1.27;;;1.05;;
36283;SDS011;56085;48.910;9.478;2023-11-19T00:28:52;2.30;;;1.30;;
36283;SDS011;56085;48.910;9.478;2023-11-19T00:31:17;2.08;;;0.93;;
36283;SDS011;56085;48.910;9.478;2023-11-19T00:33:43;1.70;;;0.98;;
36283;SDS011;56085;48.910;9.478;2023-11-19T00:36:08;4.10;;;1.30;;
36283;SDS011;56085;48.910;9.478;2023-11-19T00:38:34;1.77;;;0.90;;
36283;SDS011;56085;48.910;9.478;2023-11-19T00:40:59;2.03;;;1.10;;
36283;SDS011;56085;48.910;9.478;2023-11-19T00:43:24;2.00;;;0.88;;
36283;SDS011;56085;48.910;9.478;2023-11-19T00:45:51;2.85;;;1.13;;
36283;SDS011;56085;48.910;9.478;2023-11-19T00:48:16;1.75;;;1.00;;
36283;SDS011;56085;48.910;9.478;2023-11-19T00:50:42;1.02;;;0.85;;
36283;SDS011;56085;48.910;9.478;2023-11-19T00:53:10;2.45;;;1.23;;
36283;SDS011;56085;48.910;9.478;2023-11-19T00:55:35;1.88;;;1.00;;
36283;SDS011;56085;48.910;9.478;2023-11-19T00:58:01;2.17;;;0.90;;
36283;SDS011;56085;48.910;9.478;2023-11-19T01:00:26;1.92;;;0.82;;
36283;SDS011;56085;48.910;9.478;2023-11-19T01:02:52;2.00;;;1.20;;
36283;SDS011;56085;48.910;9.478;2023-11-19T01:05:18;3.08;;;1.20;;
36283;SDS011;56085;48.910;9.478;2023-11-19T01:07:47;1.83;;;0.90;;
36283;SDS011;56085;48.910;9.478;2023-11-19T01:10:12;1.15;;;0.80;;
36283;SDS011;56085;48.910;9.478;2023-11-19T01:12:37;2.60;;;0.90;;
36283;SDS011;56085;48.910;9.478;2023-11-19T01:15:03;1.75;;;0.90;;
36283;SDS011;56085;48.910;9.478;2023-11-19T01:17:30;3.40;;;1.27;;
36283;SDS011;56085;48.910;9.478;2023-11-19T01:19:56;1.30;;;0.68;;
36283;SDS011;56085;48.910;9.478;2023-11-19T01:22:22;1.38;;;0.70;;
36283;SDS011;56085;48.910;9.478;2023-11-19T01:24:48;1.60;;;0.98;;
36283;SDS011;56085;48.910;9.478;2023-11-19T01:27:13;1.48;;;0.65;;
36283;SDS011;56085;48.910;9.478;2023-11-19T01:29:39;0.85;;;0.63;;
36283;SDS011;56085;48.910;9.478;2023-11-19T01:32:04;1.58;;;0.55;;
36283;SDS011;56085;48.910;9.478;2023-11-19T01:34:30;1.42;;;0.90;;
36283;SDS011;56085;48.910;9.478;2023-11-19T01:36:55;1.88;;;0.90;;
36283;SDS011;56085;48.910;9.478;2023-11-19T01:39:20;1.30;;;0.70;;
36283;SDS011;56085;48.910;9.478;2023-11-19T01:41:46;0.85;;;0.57;;
36283;SDS011;56085;48.910;9.478;2023-11-19T01:44:11;2.85;;;0.77;;
36283;SDS011;56085;48.910;9.478;2023-11-19T01:46:43;1.45;;;0.63;;
36283;SDS011;56085;48.910;9.478;2023-11-19T01:49:12;1.27;;;0.55;;
36283;SDS011;56085;48.910;9.478;2023-11-19T01:51:39;0.95;;;0.60;;
36283;SDS011;56085;48.910;9.478;2023-11-19T01:54:05;2.53;;;0.70;;
36283;SDS011;56085;48.910;9.478;2023-11-19T01:56:32;0.73;;;0.47;;
36283;SDS011;56085;48.910;9.478;2023-11-19T01:58:58;0.88;;;0.50;;
36283;SDS011;56085;48.910;9.478;2023-11-19T02:01:24;0.95;;;0.60;;
36283;SDS011;56085;48.910;9.478;2023-11-19T02:03:50;1.25;;;0.63;;
36283;SDS011;56085;48.910;9.478;2023-11-19T02:06:16;2.97;;;0.80;;
36283;SDS011;56085;48.910;9.478;2023-11-19T02:08:42;0.80;;;0.40;;
36283;SDS011;56085;48.910;9.478;2023-11-19T02:11:08;1.88;;;0.65;;
36283;SDS011;56085;48.910;9.478;2023-11-19T02:13:34;0.47;;;0.45;;
36283;SDS011;56085;48.910;9.478;2023-11-19T02:16:02;0.82;;;0.50;;
36283;SDS011;56085;48.910;9.478;2023-11-19T02:18:28;1.67;;;0.70;;
36283;SDS011;56085;48.910;9.478;2023-11-19T02:20:54;1.48;;;0.55;;
36283;SDS011;56085;48.910;9.478;2023-11-19T02:23:20;0.50;;;0.40;;
36283;SDS011;56085;48.910;9.478;2023-11-19T02:25:47;0.57;;;0.40;;
36283;SDS011;56085;48.910;9.478;2023-11-19T02:28:18;1.08;;;0.38;;
36283;SDS011;56085;48.910;9.478;2023-11-19T02:30:44;0.55;;;0.30;;
36283;SDS011;56085;48.910;9.478;2023-11-19T02:33:09;0.77;;;0.60;;
36283;SDS011;56085;48.910;9.478;2023-11-19T02:35:34;3.03;;;0.60;;
36283;SDS011;56085;48.910;9.478;2023-11-19T02:38:00;0.77;;;0.50;;
36283;SDS011;56085;48.910;9.478;2023-11-19T02:40:34;1.38;;;0.70;;
36283;SDS011;56085;48.910;9.478;2023-11-19T02:42:59;0.82;;;0.40;;
36283;SDS011;56085;48.910;9.478;2023-11-19T02:45:25;1.10;;;0.43;;
36283;SDS011;56085;48.910;9.478;2023-11-19T02:47:51;0.63;;;0.40;;
36283;SDS011;56085;48.910;9.478;2023-11-19T02:50:18;0.68;;;0.30;;
36283;SDS011;56085;48.910;9.478;2023-11-19T02:52:49;0.73;;;0.40;;
36283;SDS011;56085;48.910;9.478;2023-11-19T02:55:16;0.77;;;0.50;;
36283;SDS011;56085;48.910;9.478;2023-11-19T02:57:42;0.90;;;0.50;;
36283;SDS011;56085;48.910;9.478;2023-11-19T03:00:16;1.08;;;0.52;;
36283;SDS011;56085;48.910;9.478;2023-11-19T03:02:49;2.38;;;0.60;;
36283;SDS011;56085;48.910;9.478;2023-11-19T03:05:23;0.85;;;0.40;;
36283;SDS011;56085;48.910;9.478;2023-11-19T03:07:49;1.00;;;0.47;;
36283;SDS011;56085;48.910;9.478;2023-11-19T03:10:14;1.30;;;0.50;;
36283;SDS011;56085;48.910;9.478;2023-11-19T03:12:42;1.58;;;0.55;;
36283;SDS011;56085;48.910;9.478;2023-11-19T03:15:09;0.57;;;0.50;;
36283;SDS011;56085;48.910;9.478;2023-11-19T03:17:44;1.17;;;0.55;;
36283;SDS011;56085;48.910;9.478;2023-11-19T03:20:10;1.80;;;0.60;;
36283;SDS011;56085;48.910;9.478;2023-11-19T03:22:40;0.73;;;0.47;;
36283;SDS011;56085;48.910;9.478;2023-11-19T03:25:06;0.50;;;0.50;;
36283;SDS011;56085;48.910;9.478;2023-11-19T03:27:33;2.25;;;0.80;;
36283;SDS011;56085;48.910;9.478;2023-11-19T03:30:07;1.38;;;0.80;;
36283;SDS011;56085;48.910;9.478;2023-11-19T03:32:34;1.55;;;0.88;;
36283;SDS011;56085;48.910;9.478;2023-11-19T03:35:00;1.30;;;0.90;;
36283;SDS011;56085;48.910;9.478;2023-11-19T03:37:26;1.05;;;0.82;;
36283;SDS011;56085;48.910;9.478;2023-11-19T03:39:53;0.80;;;0.50;;
36283;SDS011;56085;48.910;9.478;2023-11-19T03:42:19;1.08;;;0.77;;
36283;SDS011;56085;48.910;9.478;2023-11-19T03:44:45;2.42;;;0.55;;
36283;SDS011;56085;48.910;9.478;2023-11-19T03:47:11;1.58;;;0.82;;
36283;SDS011;56085;48.910;9.478;2023-11-19T03:49:36;2.28;;;1.02;;
36283;SDS011;56085;48.910;9.478;2023-11-19T03:52:01;0.88;;;0.80;;
36283;SDS011;56085;48.910;9.478;2023-11-19T03:54:27;0.95;;;0.50;;
36283;SDS011;56085;48.910;9.478;2023-11-19T03:56:52;1.20;;;0.57;;
36283;SDS011;56085;48.910;9.478;2023-11-19T03:59:18;0.50;;;0.40;;
36283;SDS011;56085;48.910;9.478;2023-11-19T04:01:45;0.63;;;0.30;;
36283;SDS011;56085;48.910;9.478;2023-11-19T04:04:11;0.30;;;0.30;;
36283;SDS011;56085;48.910;9.478;2023-11-19T04:06:36;2.28;;;0.45;;
36283;SDS011;56085;48.910;9.478;2023-11-19T04:09:01;0.40;;;0.30;;
36283;SDS011;56085;48.910;9.478;2023-11-19T04:11:26;1.17;;;0.30;;
36283;SDS011;56085;48.910;9.478;2023-11-19T04:13:52;0.55;;;0.43;;
36283;SDS011;56085;48.910;9.478;2023-11-19T04:16:18;0.90;;;0.35;;
36283;SDS011;56085;48.910;9.478;2023-11-19T04:18:43;0.20;;;0.20;;
36283;SDS011;56085;48.910;9.478;2023-11-19T04:21:08;0.70;;;0.40;;
36283;SDS011;56085;48.910;9.478;2023-11-19T04:23:34;0.47;;;0.30;;
36283;SDS011;56085;48.910;9.478;2023-11-19T04:26:03;0.32;;;0.30;;
36283;SDS011;56085;48.910;9.478;2023-11-19T04:28:29;1.08;;;0.50;;
36283;SDS011;56085;48.910;9.478;2023-11-19T04:30:55;0.50;;;0.35;;
36283;SDS011;56085;48.910;9.478;2023-11-19T04:33:21;0.75;;;0.22;;
36283;SDS011;56085;48.910;9.478;2023-11-19T04:35:46;0.50;;;0.30;;
36283;SDS011;56085;48.910;9.478;2023-11-19T04:38:11;1.33;;;0.30;;
36283;SDS011;56085;48.910;9.478;2023-11-19T04:40:37;0.77;;;0.30;;
36283;SDS011;56085;48.910;9.478;2023-11-19T04:43:02;1.30;;;0.38;;
36283;SDS011;56085;48.910;9.478;2023-11-19T04:45:27;1.98;;;0.80;;
36283;SDS011;56085;48.910;9.478;2023-11-19T04:47:52;1.80;;;0.30;;
36283;SDS011;56085;48.910;9.478;2023-11-19T04:50:18;0.10;;;0.00;;
36283;SDS011;56085;48.910;9.478;2023-11-19T04:52:43;0.40;;;0.30;;
36283;SDS011;56085;48.910;9.478;2023-11-19T04:55:12;0.47;;;0.10;;
36283;SDS011;56085;48.910;9.478;2023-11-19T04:57:39;2.40;;;0.20;;
36283;SDS011;56085;48.910;9.478;2023-11-19T05:00:04;0.80;;;0.30;;
36283;SDS011;56085;48.910;9.478;2023-11-19T05:02:31;0.10;;;0.10;;
36283;SDS011;56085;48.910;9.478;2023-11-19T05:04:56;0.85;;;0.20;;
36283;SDS011;56085;48.910;9.478;2023-11-19T05:07:22;0.20;;;0.10;;
36283;SDS011;56085;48.910;9.478;2023-11-19T05:09:48;0.10;;;0.10;;
36283;SDS011;56085;48.910;9.478;2023-11-19T05:12:13;0.52;;;0.20;;
36283;SDS011;56085;48.910;9.478;2023-11-19T05:14:38;0.40;;;0.15;;
36283;SDS011;56085;48.910;9.478;2023-11-19T05:17:04;1.35;;;0.30;;
36283;SDS011;56085;48.910;9.478;2023-11-19T05:19:29;0.30;;;0.10;;
36283;SDS011;56085;48.910;9.478;2023-11-19T05:21:54;0.28;;;0.10;;
36283;SDS011;56085;48.910;9.478;2023-11-19T05:24:20;0.30;;;0.10;;
36283;SDS011;56085;48.910;9.478;2023-11-19T05:26:45;0.55;;;0.10;;
36283;SDS011;56085;48.910;9.478;2023-11-19T05:29:11;0.55;;;0.10;;
36283;SDS011;56085;48.910;9.478;2023-11-19T05:31:37;0.10;;;0.10;;
36283;SDS011;56085;48.910;9.478;2023-11-19T05:34:03;0.55;;;0.25;;
36283;SDS011;56085;48.910;9.478;2023-11-19T05:36:28;0.70;;;0.20;;
36283;SDS011;56085;48.910;9.478;2023-11-19T05:38:54;0.15;;;0.15;;
36283;SDS011;56085;48.910;9.478;2023-11-19T05:41:19;0.00;;;0.00;;
36283;SDS011;56085;48.910;9.478;2023-11-19T05:43:45;0.45;;;0.10;;
36283;SDS011;56085;48.910;9.478;2023-11-19T05:46:11;0.03;;;0.03;;
36283;SDS011;56085;48.910;9.478;2023-11-19T05:48:38;0.60;;;0.05;;
36283;SDS011;56085;48.910;9.478;2023-11-19T05:51:03;0.20;;;0.10;;
36283;SDS011;56085;48.910;9.478;2023-11-19T05:53:30;0.00;;;0.00;;
36283;SDS011;56085;48.910;9.478;2023-11-19T05:55:55;0.20;;;0.10;;
36283;SDS011;56085;48.910;9.478;2023-11-19T05:58:24;0.10;;;0.00;;
36283;SDS011;56085;48.910;9.478;2023-11-19T06:00:52;0.73;;;0.10;;
36283;SDS011;56085;48.910;9.478;2023-11-19T06:03:18;0.03;;;0.03;;
36283;SDS011;56085;48.910;9.478;2023-11-19T06:05:46;0.10;;;0.10;;
36283;SDS011;56085;48.910;9.478;2023-11-19T06:08:13;1.98;;;0.30;;
36283;SDS011;56085;48.910;9.478;2023-11-19T06:10:40;0.10;;;0.10;;
36283;SDS011;56085;48.910;9.478;2023-11-19T06:13:05;2.05;;;0.22;;
36283;SDS011;56085;48.910;9.478;2023-11-19T06:15:31;0.68;;;0.17;;
36283;SDS011;56085;48.910;9.478;2023-11-19T06:17:58;0.32;;;0.20;;
36283;SDS011;56085;48.910;9.478;2023-11-19T06:20:26;0.60;;;0.30;;
36283;SDS011;56085;48.910;9.478;2023-11-19T06:22:53;0.28;;;0.20;;
36283;SDS011;56085;48.910;9.478;2023-11-19T06:25:18;0.73;;;0.40;;
36283;SDS011;56085;48.910;9.478;2023-11-19T06:27:43;0.20;;;0.20;;
36283;SDS011;56085;48.910;9.478;2023-11-19T06:30:09;0.63;;;0.20;;
36283;SDS011;56085;48.910;9.478;2023-11-19T06:32:35;0.47;;;0.30;;
36283;SDS011;56085;48.910;9.478;2023-11-19T06:35:00;0.65;;;0.10;;
36283;SDS011;56085;48.910;9.478;2023-11-19T06:37:25;3.17;;;0.22;;
36283;SDS011;56085;48.910;9.478;2023-11-19T06:39:53;0.20;;;0.10;;
36283;SDS011;56085;48.910;9.478;2023-11-19T06:42:18;0.20;;;0.10;;
36283;SDS011;56085;48.910;9.478;2023-11-19T06:44:43;0.10;;;0.10;;
36283;SDS011;56085;48.910;9.478;2023-11-19T06:47:09;0.25;;;0.17;;
36283;SDS011;56085;48.910;9.478;2023-11-19T06:49:34;0.20;;;0.20;;
36283;SDS011;56085;48.910;9.478;2023-11-19T06:51:59;0.88;;;0.30;;
36283;SDS011;56085;48.910;9.478;2023-11-19T06:54:24;1.15;;;0.25;;
36283;SDS011;56085;48.910;9.478;2023-11-19T06:56:50;0.32;;;0.17;;
36283;SDS011;56085;48.910;9.478;2023-11-19T06:59:15;0.22;;;0.20;;
36283;SDS011;56085;48.910;9.478;2023-11-19T07:01:40;0.10;;;0.10;;
36283;SDS011;56085;48.910;9.478;2023-11-19T07:04:10;2.75;;;0.38;;
36283;SDS011;56085;48.910;9.478;2023-11-19T07:06:36;0.28;;;0.20;;
36283;SDS011;56085;48.910;9.478;2023-11-19T07:09:02;0.22;;;0.10;;
36283;SDS011;56085;48.910;9.478;2023-11-19T07:11:34;1.63;;;0.28;;
36283;SDS011;56085;48.910;9.478;2023-11-19T07:14:03;0.45;;;0.20;;
36283;SDS011;56085;48.910;9.478;2023-11-19T07:16:29;0.40;;;0.10;;
36283;SDS011;56085;48.910;9.478;2023-11-19T07:18:54;1.60;;;0.20;;
36283;SDS011;56085;48.910;9.478;2023-11-19T07:21:20;2.85;;;0.10;;
36283;SDS011;56085;48.910;9.478;2023-11-19T07:23:45;0.50;;;0.20;;
36283;SDS011;56085;48.910;9.478;2023-11-19T07:26:11;0.65;;;0.30;;
36283;SDS011;56085;48.910;9.478;2023-11-19T07:28:37;0.55;;;0.35;;
36283;SDS011;56085;48.910;9.478;2023-11-19T07:31:02;0.43;;;0.10;;
36283;SDS011;56085;48.910;9.478;2023-11-19T07:33:28;0.32;;;0.13;;
36283;SDS011;56085;48.910;9.478;2023-11-19T07:35:54;0.30;;;0.15;;
36283;SDS011;56085;48.910;9.478;2023-11-19T07:38:20;0.40;;;0.20;;
36283;SDS011;56085;48.910;9.478;2023-11-19T07:40:45;0.32;;;0.20;;
36283;SDS011;56085;48.910;9.478;2023-11-19T07:43:10;0.85;;;0.30;;
36283;SDS011;56085;48.910;9.478;2023-11-19T07:45:35;0.30;;;0.20;;
36283;SDS011;56085;48.910;9.478;2023-11-19T07:48:01;0.10;;;0.10;;
36283;SDS011;56085;48.910;9.478;2023-11-19T07:50:26;0.63;;;0.35;;
36283;SDS011;56085;48.910;9.478;2023-11-19T07:52:52;0.52;;;0.28;;
36283;SDS011;56085;48.910;9.478;2023-11-19T07:55:18;0.38;;;0.10;;
36283;SDS011;56085;48.910;9.478;2023-11-19T07:57:43;2.45;;;0.25;;
36283;SDS011;56085;48.910;9.478;2023-11-19T08:00:09;0.32;;;0.20;;
36283;SDS011;56085;48.910;9.478;2023-11-19T08:02:37;0.38;;;0.25;;
36283;SDS011;56085;48.910;9.478;2023-11-19T08:05:03;0.85;;;0.50;;
36283;SDS011;56085;48.910;9.478;2023-11-19T08:07:28;1.17;;;0.50;;
36283;SDS011;56085;48.910;9.478;2023-11-19T08:09:54;0.35;;;0.32;;
36283;SDS011;56085;48.910;9.478;2023-11-19T08:12:19;0.68;;;0.30;;
36283;SDS011;56085;48.910;9.478;2023-11-19T08:14:45;1.45;;;0.45;;
36283;SDS011;56085;48.910;9.478;2023-11-19T08:17:10;1.02;;;0.60;;
36283;SDS011;56085;48.910;9.478;2023-11-19T08:19:35;0.60;;;0.40;;
36283;SDS011;56085;48.910;9.478;2023-11-19T08:22:01;1.25;;;0.70;;
36283;SDS011;56085;48.910;9.478;2023-11-19T08:24:27;0.52;;;0.35;;
36283;SDS011;56085;48.910;9.478;2023-11-19T08:26:53;1.20;;;0.50;;
36283;SDS011;56085;48.910;9.478;2023-11-19T08:29:18;1.25;;;0.55;;
36283;SDS011;56085;48.910;9.478;2023-11-19T08:31:44;1.55;;;0.50;;
36283;SDS011;56085;48.910;9.478;2023-11-19T08:34:09;1.25;;;0.30;;
36283;SDS011;56085;48.910;9.478;2023-11-19T08:36:36;3.22;;;0.90;;
36283;SDS011;56085;48.910;9.478;2023-11-19T08:39:02;1.75;;;0.80;;
36283;SDS011;56085;48.910;9.478;2023-11-19T08:41:28;1.45;;;0.70;;
36283;SDS011;56085;48.910;9.478;2023-11-19T08:43:54;1.45;;;0.70;;
36283;SDS011;56085;48.910;9.478;2023-11-19T08:46:19;0.63;;;0.43;;
36283;SDS011;56085;48.910;9.478;2023-11-19T08:48:45;1.08;;;0.60;;
36283;SDS011;56085;48.910;9.478;2023-11-19T08:51:11;2.53;;;0.98;;
36283;SDS011;56085;48.910;9.478;2023-11-19T08:53:37;1.23;;;0.57;;
36283;SDS011;56085;48.910;9.478;2023-11-19T08:56:02;2.05;;;0.60;;
36283;SDS011;56085;48.910;9.478;2023-11-19T08:58:28;1.92;;;1.00;;
36283;SDS011;56085;48.910;9.478;2023-11-19T09:00:53;2.47;;;1.40;;
36283;SDS011;56085;48.910;9.478;2023-11-19T09:03:19;2.08;;;0.93;;
36283;SDS011;56085;48.910;9.478;2023-11-19T09:05:45;2.90;;;1.30;;
36283;SDS011;56085;48.910;9.478;2023-11-19T09:08:10;3.63;;;1.50;;
36283;SDS011;56085;48.910;9.478;2023-11-19T09:10:37;1.90;;;0.90;;
36283;SDS011;56085;48.910;9.478;2023-11-19T09:13:02;2.17;;;0.90;;
36283;SDS011;56085;48.910;9.478;2023-11-19T09:15:29;1.13;;;0.80;;
36283;SDS011;56085;48.910;9.478;2023-11-19T09:17:55;0.70;;;0.60;;
36283;SDS011;56085;48.910;9.478;2023-11-19T09:20:21;2.35;;;1.40;;
36283;SDS011;56085;48.910;9.478;2023-11-19T09:22:46;2.38;;;1.40;;
36283;SDS011;56085;48.910;9.478;2023-11-19T09:25:11;3.67;;;1.50;;
36283;SDS011;56085;48.910;9.478;2023-11-19T09:27:41;1.92;;;1.10;;
36283;SDS011;56085;48.910;9.478;2023-11-19T09:30:07;3.97;;;1.83;;
36283;SDS011;56085;48.910;9.478;2023-11-19T09:32:32;2.88;;;1.20;;
36283;SDS011;56085;48.910;9.478;2023-11-19T09:34:58;3.83;;;1.63;;
36283;SDS011;56085;48.910;9.478;2023-11-19T09:37:23;3.78;;;1.83;;
36283;SDS011;56085;48.910;9.478;2023-11-19T09:39:48;3.47;;;1.85;;
36283;SDS011;56085;48.910;9.478;2023-11-19T09:42:13;2.92;;;1.33;;
36283;SDS011;56085;48.910;9.478;2023-11-19T09:44:39;3.30;;;1.45;;
36283;SDS011;56085;48.910;9.478;2023-11-19T09:47:07;1.83;;;1.00;;
36283;SDS011;56085;48.910;9.478;2023-11-19T09:49:33;1.60;;;1.17;;
36283;SDS011;56085;48.910;9.478;2023-11-19T09:52:00;2.45;;;1.20;;
36283;SDS011;56085;48.910;9.478;2023-11-19T09:54:26;1.73;;;0.98;;
36283;SDS011;56085;48.910;9.478;2023-11-19T09:56:51;1.85;;;0.63;;
36283;SDS011;56085;48.910;9.478;2023-11-19T09:59:18;1.98;;;0.98;;
36283;SDS011;56085;48.910;9.478;2023-11-19T10:01:44;1.90;;;0.75;;
36283;SDS011;56085;48.910;9.478;2023-11-19T10:04:10;2.45;;;0.90;;
36283;SDS011;56085;48.910;9.478;2023-11-19T10:06:40;2.28;;;1.27;;
36283;SDS011;56085;48.910;9.478;2023-11-19T10:09:06;3.63;;;0.90;;
36283;SDS011;56085;48.910;9.478;2023-11-19T10:11:32;0.65;;;0.50;;
36283;SDS011;56085;48.910;9.478;2023-11-19T10:13:57;1.08;;;0.57;;
36283;SDS011;56085;48.910;9.478;2023-11-19T10:16:34;0.90;;;0.50;;
36283;SDS011;56085;48.910;9.478;2023-11-19T10:18:59;1.55;;;0.70;;
36283;SDS011;56085;48.910;9.478;2023-11-19T10:21:25;0.80;;;0.52;;
36283;SDS011;56085;48.910;9.478;2023-11-19T10:23:54;1.48;;;0.50;;
36283;SDS011;56085;48.910;9.478;2023-11-19T10:26:41;5.82;;;2.22;;
36283;SDS011;56085;48.910;9.478;2023-11-19T10:29:07;2.40;;;0.80;;
36283;SDS011;56085;48.910;9.478;2023-11-19T10:31:32;4.15;;;1.05;;
36283;SDS011;56085;48.910;9.478;2023-11-19T10:33:58;2.10;;;0.70;;
36283;SDS011;56085;48.910;9.478;2023-11-19T10:36:36;1.45;;;0.88;;
36283;SDS011;56085;48.910;9.478;2023-11-19T10:39:04;1.50;;;0.90;;
36283;SDS011;56085;48.910;9.478;2023-11-19T10:41:30;1.15;;;0.68;;
36283;SDS011;56085;48.910;9.478;2023-11-19T10:43:57;1.08;;;0.70;;
36283;SDS011;56085;48.910;9.478;2023-11-19T10:46:22;4.35;;;1.35;;
36283;SDS011;56085;48.910;9.478;2023-11-19T10:49:00;3.22;;;1.58;;
36283;SDS011;56085;48.910;9.478;2023-11-19T10:51:26;3.90;;;0.68;;
36283;SDS011;56085;48.910;9.478;2023-11-19T10:53:52;1.20;;;0.68;;
36283;SDS011;56085;48.910;9.478;2023-11-19T10:56:23;1.35;;;0.40;;
36283;SDS011;56085;48.910;9.478;2023-11-19T10:58:54;2.45;;;0.50;;
36283;SDS011;56085;48.910;9.478;2023-11-19T11:01:20;3.95;;;1.17;;
36283;SDS011;56085;48.910;9.478;2023-11-19T11:03:49;4.22;;;1.33;;
36283;SDS011;56085;48.910;9.478;2023-11-19T11:06:16;2.08;;;1.08;;
36283;SDS011;56085;48.910;9.478;2023-11-19T11:08:43;3.38;;;1.00;;
36283;SDS011;56085;48.910;9.478;2023-11-19T11:11:10;0.73;;;0.43;;
36283;SDS011;56085;48.910;9.478;2023-11-19T11:13:41;1.48;;;0.77;;
36283;SDS011;56085;48.910;9.478;2023-11-19T11:16:08;1.83;;;0.73;;
36283;SDS011;56085;48.910;9.478;2023-11-19T11:18:33;1.95;;;0.60;;
36283;SDS011;56085;48.910;9.478;2023-11-19T11:21:06;1.60;;;0.60;;
36283;SDS011;56085;48.910;9.478;2023-11-19T11:28:46;1.35;;;0.60;;
36283;SDS011;56085;48.910;9.478;2023-11-19T11:39:50;2.88;;;0.90;;
36283;SDS011;56085;48.910;9.478;2023-11-19T11:50:09;0.75;;;0.45;;
36283;SDS011;56085;48.910;9.478;2023-11-19T11:55:26;3.20;;;1.15;;
36283;SDS011;56085;48.910;9.478;2023-11-19T11:57:53;2.47;;;0.80;;
36283;SDS011;56085;48.910;9.478;2023-11-19T12:00:38;1.42;;;0.52;;
36283;SDS011;56085;48.910;9.478;2023-11-19T12:03:05;1.55;;;0.65;;
36283;SDS011;56085;48.910;9.478;2023-11-19T12:05:44;2.15;;;0.95;;
36283;SDS011;56085;48.910;9.478;2023-11-19T12:08:10;3.22;;;0.60;;
36283;SDS011;56085;48.910;9.478;2023-11-19T12:10:45;1.25;;;0.80;;
36283;SDS011;56085;48.910;9.478;2023-11-19T12:13:10;1.58;;;0.70;;
36283;SDS011;56085;48.910;9.478;2023-11-19T12:16:06;0.70;;;0.50;;
36283;SDS011;56085;48.910;9.478;2023-11-19T12:18:32;2.95;;;0.65;;
36283;SDS011;56085;48.910;9.478;2023-11-19T12:21:01;4.30;;;1.27;;
36283;SDS011;56085;48.910;9.478;2023-11-19T12:23:28;1.70;;;0.68;;
36283;SDS011;56085;48.910;9.478;2023-11-19T12:25:54;3.17;;;0.73;;
36283;SDS011;56085;48.910;9.478;2023-11-19T12:28:20;1.23;;;0.50;;
36283;SDS011;56085;48.910;9.478;2023-11-19T12:30:45;0.98;;;0.60;;
36283;SDS011;56085;48.910;9.478;2023-11-19T12:33:12;1.20;;;0.60;;
36283;SDS011;56085;48.910;9.478;2023-11-19T12:35:41;1.92;;;0.40;;
36283;SDS011;56085;48.910;9.478;2023-11-19T12:38:08;1.80;;;0.63;;
36283;SDS011;56085;48.910;9.478;2023-11-19T12:40:33;1.85;;;0.52;;
36283;SDS011;56085;48.910;9.478;2023-11-19T12:42:58;0.95;;;0.47;;
36283;SDS011;56085;48.910;9.478;2023-11-19T12:45:25;3.38;;;1.13;;
36283;SDS011;56085;48.910;9.478;2023-11-19T12:48:09;1.05;;;0.60;;
36283;SDS011;56085;48.910;9.478;2023-11-19T12:50:53;1.30;;;1.17;;
36283;SDS011;56085;48.910;9.478;2023-11-19T12:53:22;1.23;;;1.00;;
36283;SDS011;56085;48.910;9.478;2023-11-19T12:55:48;1.27;;;1.17;;
36283;SDS011;56085;48.910;9.478;2023-11-19T12:58:29;1.02;;;0.50;;
36283;SDS011;56085;48.910;9.478;2023-11-19T13:00:59;1.23;;;1.00;;
36283;SDS011;56085;48.910;9.478;2023-11-19T13:03:31;1.67;;;0.70;;
36283;SDS011;56085;48.910;9.478;2023-11-19T13:06:05;3.22;;;0.60;;
36283;SDS011;56085;48.910;9.478;2023-11-19T13:11:13;1.20;;;0.60;;
36283;SDS011;56085;48.910;9.478;2023-11-19T13:13:58;1.90;;;0.80;;
36283;SDS011;56085;48.910;9.478;2023-11-19T13:16:25;1.88;;;0.68;;
36283;SDS011;56085;48.910;9.478;2023-11-19T13:18:51;3.45;;;0.57;;
36283;SDS011;56085;48.910;9.478;2023-11-19T13:21:16;1.30;;;0.63;;
36283;SDS011;56085;48.910;9.478;2023-11-19T13:23:42;1.02;;;0.50;;
36283;SDS011;56085;48.910;9.478;2023-11-19T13:26:08;1.88;;;0.30;;
36283;SDS011;56085;48.910;9.478;2023-11-19T13:28:34;1.23;;;0.65;;
36283;SDS011;56085;48.910;9.478;2023-11-19T13:30:59;1.67;;;0.50;;
36283;SDS011;56085;48.910;9.478;2023-11-19T13:33:25;9.65;;;1.13;;
36283;SDS011;56085;48.910;9.478;2023-11-19T13:35:51;3.35;;;1.00;;
36283;SDS011;56085;48.910;9.478;2023-11-19T13:38:17;3.47;;;1.10;;
36283;SDS011;56085;48.910;9.478;2023-11-19T13:40:42;1.77;;;0.73;;
36283;SDS011;56085;48.910;9.478;2023-11-19T13:43:07;2.67;;;1.52;;
36283;SDS011;56085;48.910;9.478;2023-11-19T13:45:33;3.80;;;1.90;;
36283;SDS011;56085;48.910;9.478;2023-11-19T13:47:59;5.57;;;5.18;;
36283;SDS011;56085;48.910;9.478;2023-11-19T13:50:24;3.58;;;3.28;;
36283;SDS011;56085;48.910;9.478;2023-11-19T13:52:49;2.80;;;2.60;;
36283;SDS011;56085;48.910;9.478;2023-11-19T13:55:15;2.85;;;2.60;;
36283;SDS011;56085;48.910;9.478;2023-11-19T13:57:41;2.28;;;0.65;;
36283;SDS011;56085;48.910;9.478;2023-11-19T14:00:08;3.25;;;0.80;;
36283;SDS011;56085;48.910;9.478;2023-11-19T14:02:38;1.92;;;0.80;;
36283;SDS011;56085;48.910;9.478;2023-11-19T14:05:05;1.63;;;0.82;;
36283;SDS011;56085;48.910;9.478;2023-11-19T14:07:30;2.63;;;2.20;;
36283;SDS011;56085;48.910;9.478;2023-11-19T14:09:56;2.08;;;1.98;;
36283;SDS011;56085;48.910;9.478;2023-11-19T14:12:21;1.73;;;1.42;;
36283;SDS011;56085;48.910;9.478;2023-11-19T14:14:47;2.25;;;1.17;;
36283;SDS011;56085;48.910;9.478;2023-11-19T14:17:12;1.95;;;1.10;;
36283;SDS011;56085;48.910;9.478;2023-11-19T14:19:38;1.77;;;0.57;;
36283;SDS011;56085;48.910;9.478;2023-11-19T14:22:04;2.60;;;0.57;;
36283;SDS011;56085;48.910;9.478;2023-11-19T14:24:29;1.40;;;0.40;;
36283;SDS011;56085;48.910;9.478;2023-11-19T14:26:55;3.65;;;0.50;;
36283;SDS011;56085;48.910;9.478;2023-11-19T14:29:23;1.00;;;0.40;;
36283;SDS011;56085;48.910;9.478;2023-11-19T14:31:51;5.88;;;0.77;;
36283;SDS011;56085;48.910;9.478;2023-11-19T14:34:16;1.80;;;0.43;;
36283;SDS011;56085;48.910;9.478;2023-11-19T14:36:42;1.33;;;0.40;;
36283;SDS011;56085;48.910;9.478;2023-11-19T14:39:07;2.60;;;0.70;;
36283;SDS011;56085;48.910;9.478;2023-11-19T14:41:33;1.42;;;0.47;;
36283;SDS011;56085;48.910;9.478;2023-11-19T14:43:58;2.20;;;0.80;;
36283;SDS011;56085;48.910;9.478;2023-11-19T14:46:23;1.33;;;0.50;;
36283;SDS011;56085;48.910;9.478;2023-11-19T14:48:48;1.42;;;0.52;;
36283;SDS011;56085;48.910;9.478;2023-11-19T14:51:14;1.33;;;0.68;;
36283;SDS011;56085;48.910;9.478;2023-11-19T14:53:39;1.52;;;0.70;;
36283;SDS011;56085;48.910;9.478;2023-11-19T14:56:04;1.25;;;0.73;;
36283;SDS011;56085;48.910;9.478;2023-11-19T14:58:32;2.70;;;0.50;;
36283;SDS011;56085;48.910;9.478;2023-11-19T15:00:57;2.17;;;0.90;;
36283;SDS011;56085;48.910;9.478;2023-11-19T15:03:22;3.17;;;0.95;;
36283;SDS011;56085;48.910;9.478;2023-11-19T15:05:48;2.83;;;0.85;;
36283;SDS011;56085;48.910;9.478;2023-11-19T15:08:13;1.60;;;0.90;;
36283;SDS011;56085;48.910;9.478;2023-11-19T15:10:44;3.00;;;1.10;;
36283;SDS011;56085;48.910;9.478;2023-11-19T15:13:10;0.57;;;0.40;;